Gove, KS (67736)

09:09 PM CDT die 27o August, anno 2016 (GMT -0500)
South Gove | | Change Station

Elev 2638 ft 38.81 °N, 100.46 °W | Updated 2 seconds ago

Clear
Serena
76.7 °F
Feels Like 79 °F
N
6.5
Ventus Variabilis Ventus from Magis Eurus quam Auster
Gusts 10.0 mph

Hodie
High -- | Low -- °F
--% Chance of Precip.
Yesterday
High -- | Low -- °F
Precip. -- in
Pressio 30.02 in
Visibilitas 10.0 milia passuum
Clouds Serena
Index Caloris 79 °F
Frigus in quo Ros apparet 64 °F
Umor 65%
Rainfall 0.02 in
Snow Depth Not available.
7:07 AM 8:19 PM
Waning Crescent, 19% visible
METAR KCBK 280155Z AUTO 14012KT 10SM CLR 25/18 A3002 RMK AO2
Pressio 30.02 in
Visibilitas 10.0 milia passuum
Clouds Serena
Index Caloris 79 °F
Frigus in quo Ros apparet 64 °F
Umor 65%
Rainfall 0.02 in
Snow Depth Not available.
7:07 AM 8:19 PM
Waning Crescent, 19% visible
METAR KCBK 280155Z AUTO 14012KT 10SM CLR 25/18 A3002 RMK AO2

10-Day Weather Forecast

Almanac

Astronomy

Aug. 27, 2016 Rise Set
Actual Time
Civil Twilight
Nautical Twilight
Astronomical Twilight
Moon
Length Of Visible Light
Length of Day
Tomorrow will be .
, % of the Moon is Illuminated

Today's Extremes

State Highs State Lows

Community

WunderPhotos

Upload Photos

1,935,491 photos uploaded!

WunderBlog® & News

Nearby

Air Quality

  Air Quality AQ Index Pollutant
Not available.

Snow Depth

Station Depth Elevation

Earthquake Activity

City Distance Mag. Time & Date
Minimum magnitude displayed is 2.5.

Coastal Water Temperatures

Locus Calor

Stations

Nearby Weather Stations

Station Location Temp Frigus Venti Frigus in quo Ros apparet Umor Ventus Precip. Elev Renovata Type
                   

Watches & Warnings

There are currently no watches in effect.